Main page
METAR-TAF:

METAR-TAF

Airports :

Kushiro Airport

Kushiro, Japan

latitude: 43-02N, longitude: 144-12E, elevation: 95 m

Current weather observation

The report was made 15 minutes ago, at 02:00 UTC
Wind 8 kt from the Southwest, varying between South/Southwest and West
Temperature 5°C
Humidity 56%
Pressure 1026 hPa
Visibility 10 km or more
Few clouds at a height of 3000 ft

METAR: RJCK 060200Z 23008KT 200V270 9999 FEW030 05/M03 Q1026

Time: 11:15 (02:15 UTC)

Forecast

The report was made 3 hours and 7 minutes ago, at 23:08 UTC
Forecast valid from 06 at 00 UTC to 07 at 06 UTC
Wind 10 kt from the South/Southwest
Visibility 10 km or more
Few clouds at a height of 3000 ft
Becoming
from 06 at 08 UTC to 06 at 10 UTC
Wind 5 kt from the Northwest
Becoming
from 07 at 00 UTC to 07 at 03 UTC
Wind 5 kt from the South/Southwest

TAF: RJCK 052308Z 0600/0706 21010KT 9999 FEW030 BECMG 0608/0610 31005KT BECMG 0700/0703 21005KT

Weather observations and forecasts of more than 4000 airports (METAR and TAF reports).

The available stations are represented by yellow and red dots on the map.

Hover mouse over dot to see the name of the station.

Then click to see weather observations and forecasts.

To change the map : click on the green buttons with a black cross to zoom in, on the green button with a dash to zoom out, or on the green arrows for adjacent maps.


METAR-TAF: